sensor_id;sensor_type;location;lat;lon;timestamp;P1;durP1;ratioP1;P2;durP2;ratioP2
71969;SDS011;59838;52.152;5.436;2023-02-28T00:01:30;3.53;;;1.20;;
71969;SDS011;59838;52.152;5.436;2023-02-28T00:03:58;6.15;;;1.52;;
71969;SDS011;59838;52.152;5.436;2023-02-28T00:06:28;1.77;;;0.80;;
71969;SDS011;59838;52.152;5.436;2023-02-28T00:08:54;3.45;;;1.67;;
71969;SDS011;59838;52.152;5.436;2023-02-28T00:11:21;2.97;;;1.50;;
71969;SDS011;59838;52.152;5.436;2023-02-28T00:13:50;3.78;;;1.17;;
71969;SDS011;59838;52.152;5.436;2023-02-28T00:16:18;4.45;;;1.38;;
71969;SDS011;59838;52.152;5.436;2023-02-28T00:18:46;4.95;;;1.45;;
71969;SDS011;59838;52.152;5.436;2023-02-28T00:21:14;7.78;;;1.42;;
71969;SDS011;59838;52.152;5.436;2023-02-28T00:23:43;2.43;;;1.20;;
71969;SDS011;59838;52.152;5.436;2023-02-28T00:26:09;2.05;;;1.15;;
71969;SDS011;59838;52.152;5.436;2023-02-28T00:28:36;9.13;;;1.30;;
71969;SDS011;59838;52.152;5.436;2023-02-28T00:31:02;4.18;;;1.23;;
71969;SDS011;59838;52.152;5.436;2023-02-28T00:33:29;2.40;;;1.23;;
71969;SDS011;59838;52.152;5.436;2023-02-28T00:36:03;4.47;;;0.97;;
71969;SDS011;59838;52.152;5.436;2023-02-28T00:38:34;2.25;;;0.70;;
71969;SDS011;59838;52.152;5.436;2023-02-28T00:41:01;5.70;;;0.65;;
71969;SDS011;59838;52.152;5.436;2023-02-28T00:43:31;8.68;;;1.20;;
71969;SDS011;59838;52.152;5.436;2023-02-28T00:45:59;3.63;;;1.00;;
71969;SDS011;59838;52.152;5.436;2023-02-28T00:48:29;4.87;;;1.03;;
71969;SDS011;59838;52.152;5.436;2023-02-28T00:50:55;5.78;;;0.93;;
71969;SDS011;59838;52.152;5.436;2023-02-28T00:53:22;4.97;;;0.95;;
71969;SDS011;59838;52.152;5.436;2023-02-28T00:55:49;2.33;;;0.85;;
71969;SDS011;59838;52.152;5.436;2023-02-28T00:58:16;2.17;;;0.90;;
71969;SDS011;59838;52.152;5.436;2023-02-28T01:00:43;1.37;;;0.57;;
71969;SDS011;59838;52.152;5.436;2023-02-28T01:03:16;3.78;;;0.90;;
71969;SDS011;59838;52.152;5.436;2023-02-28T01:05:44;3.22;;;1.30;;
71969;SDS011;59838;52.152;5.436;2023-02-28T01:08:11;5.00;;;1.10;;
71969;SDS011;59838;52.152;5.436;2023-02-28T01:10:38;3.55;;;1.17;;
71969;SDS011;59838;52.152;5.436;2023-02-28T01:13:05;4.40;;;1.10;;
71969;SDS011;59838;52.152;5.436;2023-02-28T01:15:32;3.95;;;0.95;;
71969;SDS011;59838;52.152;5.436;2023-02-28T01:17:59;5.90;;;1.10;;
71969;SDS011;59838;52.152;5.436;2023-02-28T01:20:25;3.25;;;1.30;;
71969;SDS011;59838;52.152;5.436;2023-02-28T01:22:52;2.10;;;0.90;;
71969;SDS011;59838;52.152;5.436;2023-02-28T01:25:18;5.87;;;1.30;;
71969;SDS011;59838;52.152;5.436;2023-02-28T01:27:45;2.55;;;0.90;;
71969;SDS011;59838;52.152;5.436;2023-02-28T01:30:12;3.15;;;1.00;;
71969;SDS011;59838;52.152;5.436;2023-02-28T01:32:38;2.55;;;1.00;;
71969;SDS011;59838;52.152;5.436;2023-02-28T01:35:05;2.47;;;1.13;;
71969;SDS011;59838;52.152;5.436;2023-02-28T01:37:31;2.47;;;0.70;;
71969;SDS011;59838;52.152;5.436;2023-02-28T01:39:58;2.33;;;0.80;;
71969;SDS011;59838;52.152;5.436;2023-02-28T01:42:24;3.53;;;0.95;;
71969;SDS011;59838;52.152;5.436;2023-02-28T01:44:59;4.70;;;0.82;;
71969;SDS011;59838;52.152;5.436;2023-02-28T01:47:46;3.15;;;1.35;;
71969;SDS011;59838;52.152;5.436;2023-02-28T01:50:20;2.67;;;0.70;;
71969;SDS011;59838;52.152;5.436;2023-02-28T01:52:51;4.95;;;1.05;;
71969;SDS011;59838;52.152;5.436;2023-02-28T01:55:22;2.65;;;0.93;;
71969;SDS011;59838;52.152;5.436;2023-02-28T01:57:55;5.07;;;1.00;;
71969;SDS011;59838;52.152;5.436;2023-02-28T02:00:24;2.65;;;0.82;;
71969;SDS011;59838;52.152;5.436;2023-02-28T02:02:57;2.73;;;1.10;;
71969;SDS011;59838;52.152;5.436;2023-02-28T02:05:28;5.45;;;1.25;;
71969;SDS011;59838;52.152;5.436;2023-02-28T02:07:58;5.28;;;1.00;;
71969;SDS011;59838;52.152;5.436;2023-02-28T02:10:31;5.00;;;0.80;;
71969;SDS011;59838;52.152;5.436;2023-02-28T02:13:13;2.75;;;1.00;;
71969;SDS011;59838;52.152;5.436;2023-02-28T02:18:37;3.03;;;0.95;;
71969;SDS011;59838;52.152;5.436;2023-02-28T02:21:32;5.50;;;1.08;;
71969;SDS011;59838;52.152;5.436;2023-02-28T02:41:05;2.65;;;1.02;;
71969;SDS011;59838;52.152;5.436;2023-02-28T02:43:56;3.37;;;0.73;;
71969;SDS011;59838;52.152;5.436;2023-02-28T02:46:41;3.75;;;0.98;;
71969;SDS011;59838;52.152;5.436;2023-02-28T02:49:11;2.63;;;0.95;;
71969;SDS011;59838;52.152;5.436;2023-02-28T02:51:44;7.63;;;1.63;;
71969;SDS011;59838;52.152;5.436;2023-02-28T02:56:48;4.17;;;1.17;;
71969;SDS011;59838;52.152;5.436;2023-02-28T02:59:18;4.18;;;0.90;;
71969;SDS011;59838;52.152;5.436;2023-02-28T03:01:52;2.70;;;1.52;;
71969;SDS011;59838;52.152;5.436;2023-02-28T03:04:23;2.22;;;1.10;;
71969;SDS011;59838;52.152;5.436;2023-02-28T03:06:51;4.13;;;1.38;;
71969;SDS011;59838;52.152;5.436;2023-02-28T03:09:24;3.63;;;1.07;;
71969;SDS011;59838;52.152;5.436;2023-02-28T03:11:52;4.30;;;1.50;;
71969;SDS011;59838;52.152;5.436;2023-02-28T03:14:26;6.15;;;1.73;;
71969;SDS011;59838;52.152;5.436;2023-02-28T03:17:14;2.35;;;0.95;;
71969;SDS011;59838;52.152;5.436;2023-02-28T03:20:02;2.67;;;1.23;;
71969;SDS011;59838;52.152;5.436;2023-02-28T03:25:15;6.38;;;1.33;;
71969;SDS011;59838;52.152;5.436;2023-02-28T03:27:54;4.05;;;1.17;;
71969;SDS011;59838;52.152;5.436;2023-02-28T03:30:35;9.43;;;1.40;;
71969;SDS011;59838;52.152;5.436;2023-02-28T03:33:10;4.68;;;1.60;;
71969;SDS011;59838;52.152;5.436;2023-02-28T03:35:42;4.43;;;1.33;;
71969;SDS011;59838;52.152;5.436;2023-02-28T03:38:16;2.33;;;1.13;;
71969;SDS011;59838;52.152;5.436;2023-02-28T03:40:48;8.05;;;1.48;;
71969;SDS011;59838;52.152;5.436;2023-02-28T03:43:22;3.80;;;1.20;;
71969;SDS011;59838;52.152;5.436;2023-02-28T03:45:53;5.00;;;1.95;;
71969;SDS011;59838;52.152;5.436;2023-02-28T03:48:30;4.33;;;1.60;;
71969;SDS011;59838;52.152;5.436;2023-02-28T03:51:00;4.35;;;1.17;;
71969;SDS011;59838;52.152;5.436;2023-02-28T03:53:34;5.07;;;1.20;;
71969;SDS011;59838;52.152;5.436;2023-02-28T03:56:16;2.58;;;1.25;;
71969;SDS011;59838;52.152;5.436;2023-02-28T03:58:47;4.35;;;1.55;;
71969;SDS011;59838;52.152;5.436;2023-02-28T04:03:57;3.45;;;1.30;;
71969;SDS011;59838;52.152;5.436;2023-02-28T04:06:24;2.00;;;1.10;;
71969;SDS011;59838;52.152;5.436;2023-02-28T04:08:50;4.55;;;1.40;;
71969;SDS011;59838;52.152;5.436;2023-02-28T04:13:58;4.60;;;1.30;;
71969;SDS011;59838;52.152;5.436;2023-02-28T04:16:24;4.50;;;1.42;;
71969;SDS011;59838;52.152;5.436;2023-02-28T04:19:01;3.22;;;1.17;;
71969;SDS011;59838;52.152;5.436;2023-02-28T04:21:32;1.77;;;1.10;;
71969;SDS011;59838;52.152;5.436;2023-02-28T04:24:05;1.40;;;0.75;;
71969;SDS011;59838;52.152;5.436;2023-02-28T04:26:33;2.93;;;1.03;;
71969;SDS011;59838;52.152;5.436;2023-02-28T04:29:03;3.17;;;0.70;;
71969;SDS011;59838;52.152;5.436;2023-02-28T04:31:31;2.58;;;0.55;;
71969;SDS011;59838;52.152;5.436;2023-02-28T04:33:57;1.95;;;0.50;;
71969;SDS011;59838;52.152;5.436;2023-02-28T04:36:24;1.88;;;0.75;;
71969;SDS011;59838;52.152;5.436;2023-02-28T04:38:51;4.07;;;0.83;;
71969;SDS011;59838;52.152;5.436;2023-02-28T04:41:18;2.08;;;0.90;;
71969;SDS011;59838;52.152;5.436;2023-02-28T04:43:45;2.83;;;0.80;;
71969;SDS011;59838;52.152;5.436;2023-02-28T04:46:11;3.40;;;1.00;;
71969;SDS011;59838;52.152;5.436;2023-02-28T04:48:38;3.85;;;0.80;;
71969;SDS011;59838;52.152;5.436;2023-02-28T04:51:10;3.83;;;0.97;;
71969;SDS011;59838;52.152;5.436;2023-02-28T04:53:38;3.20;;;0.90;;
71969;SDS011;59838;52.152;5.436;2023-02-28T04:56:07;5.20;;;0.80;;
71969;SDS011;59838;52.152;5.436;2023-02-28T04:58:34;2.80;;;0.80;;
71969;SDS011;59838;52.152;5.436;2023-02-28T05:01:04;1.20;;;0.50;;
71969;SDS011;59838;52.152;5.436;2023-02-28T05:03:39;2.20;;;0.80;;
71969;SDS011;59838;52.152;5.436;2023-02-28T05:06:08;1.75;;;0.55;;
71969;SDS011;59838;52.152;5.436;2023-02-28T05:08:36;3.78;;;1.20;;
71969;SDS011;59838;52.152;5.436;2023-02-28T05:11:03;2.53;;;1.65;;
71969;SDS011;59838;52.152;5.436;2023-02-28T05:13:38;2.10;;;0.80;;
71969;SDS011;59838;52.152;5.436;2023-02-28T05:16:04;1.93;;;0.97;;
71969;SDS011;59838;52.152;5.436;2023-02-28T05:18:31;3.72;;;0.65;;
71969;SDS011;59838;52.152;5.436;2023-02-28T05:20:57;2.83;;;0.80;;
71969;SDS011;59838;52.152;5.436;2023-02-28T05:23:28;1.63;;;0.63;;
71969;SDS011;59838;52.152;5.436;2023-02-28T05:25:55;2.05;;;0.82;;
71969;SDS011;59838;52.152;5.436;2023-02-28T05:28:22;3.37;;;0.57;;
71969;SDS011;59838;52.152;5.436;2023-02-28T05:30:48;1.88;;;0.73;;
71969;SDS011;59838;52.152;5.436;2023-02-28T05:33:15;2.97;;;0.90;;
71969;SDS011;59838;52.152;5.436;2023-02-28T05:35:41;2.15;;;0.73;;
71969;SDS011;59838;52.152;5.436;2023-02-28T05:38:11;2.10;;;0.68;;
71969;SDS011;59838;52.152;5.436;2023-02-28T05:40:38;4.37;;;1.00;;
71969;SDS011;59838;52.152;5.436;2023-02-28T05:43:05;3.25;;;0.90;;
71969;SDS011;59838;52.152;5.436;2023-02-28T05:45:35;8.50;;;0.93;;
71969;SDS011;59838;52.152;5.436;2023-02-28T05:48:01;5.07;;;0.70;;
71969;SDS011;59838;52.152;5.436;2023-02-28T05:50:28;1.52;;;0.88;;
71969;SDS011;59838;52.152;5.436;2023-02-28T05:52:54;2.33;;;1.00;;
71969;SDS011;59838;52.152;5.436;2023-02-28T05:55:21;4.20;;;1.00;;
71969;SDS011;59838;52.152;5.436;2023-02-28T05:57:47;2.25;;;0.77;;
71969;SDS011;59838;52.152;5.436;2023-02-28T06:00:14;3.15;;;0.68;;
71969;SDS011;59838;52.152;5.436;2023-02-28T06:02:42;1.88;;;0.60;;
71969;SDS011;59838;52.152;5.436;2023-02-28T06:05:15;2.43;;;0.87;;
71969;SDS011;59838;52.152;5.436;2023-02-28T06:07:43;1.45;;;0.80;;
71969;SDS011;59838;52.152;5.436;2023-02-28T06:10:10;2.58;;;1.33;;
71969;SDS011;59838;52.152;5.436;2023-02-28T06:12:37;1.95;;;0.82;;
71969;SDS011;59838;52.152;5.436;2023-02-28T06:15:04;1.50;;;0.85;;
71969;SDS011;59838;52.152;5.436;2023-02-28T06:17:33;4.67;;;1.30;;
71969;SDS011;59838;52.152;5.436;2023-02-28T06:20:00;2.97;;;1.00;;
71969;SDS011;59838;52.152;5.436;2023-02-28T06:22:26;2.75;;;1.38;;
71969;SDS011;59838;52.152;5.436;2023-02-28T06:24:53;2.72;;;1.08;;
71969;SDS011;59838;52.152;5.436;2023-02-28T06:27:20;3.15;;;1.25;;
71969;SDS011;59838;52.152;5.436;2023-02-28T06:29:48;4.10;;;1.13;;
71969;SDS011;59838;52.152;5.436;2023-02-28T06:32:14;2.38;;;1.55;;
71969;SDS011;59838;52.152;5.436;2023-02-28T06:34:41;2.55;;;1.08;;
71969;SDS011;59838;52.152;5.436;2023-02-28T06:37:10;2.15;;;0.98;;
71969;SDS011;59838;52.152;5.436;2023-02-28T06:39:36;2.25;;;0.88;;
71969;SDS011;59838;52.152;5.436;2023-02-28T06:42:03;1.47;;;0.90;;
71969;SDS011;59838;52.152;5.436;2023-02-28T06:44:30;2.47;;;0.80;;
71969;SDS011;59838;52.152;5.436;2023-02-28T06:47:02;1.42;;;1.00;;
71969;SDS011;59838;52.152;5.436;2023-02-28T06:49:30;2.72;;;1.38;;
71969;SDS011;59838;52.152;5.436;2023-02-28T06:51:59;5.60;;;2.22;;
71969;SDS011;59838;52.152;5.436;2023-02-28T06:54:25;6.73;;;2.20;;
71969;SDS011;59838;52.152;5.436;2023-02-28T06:56:52;5.80;;;1.67;;
71969;SDS011;59838;52.152;5.436;2023-02-28T06:59:21;2.60;;;1.40;;
71969;SDS011;59838;52.152;5.436;2023-02-28T07:01:47;2.35;;;1.10;;
71969;SDS011;59838;52.152;5.436;2023-02-28T07:04:14;2.15;;;1.08;;
71969;SDS011;59838;52.152;5.436;2023-02-28T07:06:40;2.57;;;0.90;;
71969;SDS011;59838;52.152;5.436;2023-02-28T07:09:07;4.18;;;1.45;;
71969;SDS011;59838;52.152;5.436;2023-02-28T07:11:37;7.47;;;1.48;;
71969;SDS011;59838;52.152;5.436;2023-02-28T07:14:03;4.03;;;1.67;;
71969;SDS011;59838;52.152;5.436;2023-02-28T07:16:30;1.90;;;1.10;;
71969;SDS011;59838;52.152;5.436;2023-02-28T07:18:56;3.13;;;1.10;;
71969;SDS011;59838;52.152;5.436;2023-02-28T07:21:23;3.20;;;1.30;;
71969;SDS011;59838;52.152;5.436;2023-02-28T07:23:50;3.53;;;1.52;;
71969;SDS011;59838;52.152;5.436;2023-02-28T07:26:18;2.60;;;1.48;;
71969;SDS011;59838;52.152;5.436;2023-02-28T07:28:46;2.17;;;1.27;;
71969;SDS011;59838;52.152;5.436;2023-02-28T07:31:14;2.67;;;1.07;;
71969;SDS011;59838;52.152;5.436;2023-02-28T07:33:42;3.75;;;1.30;;
71969;SDS011;59838;52.152;5.436;2023-02-28T07:36:13;6.40;;;1.70;;
71969;SDS011;59838;52.152;5.436;2023-02-28T07:38:42;2.65;;;1.55;;
71969;SDS011;59838;52.152;5.436;2023-02-28T07:41:14;3.75;;;1.35;;
71969;SDS011;59838;52.152;5.436;2023-02-28T07:43:41;4.60;;;1.00;;
71969;SDS011;59838;52.152;5.436;2023-02-28T07:46:09;2.67;;;1.30;;
71969;SDS011;59838;52.152;5.436;2023-02-28T07:48:38;2.90;;;1.10;;
71969;SDS011;59838;52.152;5.436;2023-02-28T07:51:05;3.03;;;1.40;;
71969;SDS011;59838;52.152;5.436;2023-02-28T07:53:31;3.70;;;1.52;;
71969;SDS011;59838;52.152;5.436;2023-02-28T07:55:59;4.03;;;1.73;;
71969;SDS011;59838;52.152;5.436;2023-02-28T07:58:27;4.88;;;2.28;;
71969;SDS011;59838;52.152;5.436;2023-02-28T08:00:55;3.00;;;1.70;;
71969;SDS011;59838;52.152;5.436;2023-02-28T08:03:23;4.07;;;1.70;;
71969;SDS011;59838;52.152;5.436;2023-02-28T08:05:50;5.20;;;1.85;;
71969;SDS011;59838;52.152;5.436;2023-02-28T08:08:18;4.77;;;2.03;;
71969;SDS011;59838;52.152;5.436;2023-02-28T08:10:45;3.63;;;2.08;;
71969;SDS011;59838;52.152;5.436;2023-02-28T08:13:11;2.65;;;1.70;;
71969;SDS011;59838;52.152;5.436;2023-02-28T08:15:38;3.05;;;1.70;;
71969;SDS011;59838;52.152;5.436;2023-02-28T08:18:07;2.72;;;1.92;;
71969;SDS011;59838;52.152;5.436;2023-02-28T08:20:37;3.97;;;1.37;;
71969;SDS011;59838;52.152;5.436;2023-02-28T08:23:03;3.28;;;1.58;;
71969;SDS011;59838;52.152;5.436;2023-02-28T08:25:30;2.90;;;1.70;;
71969;SDS011;59838;52.152;5.436;2023-02-28T08:27:59;2.88;;;1.95;;
71969;SDS011;59838;52.152;5.436;2023-02-28T08:30:27;2.95;;;1.73;;
71969;SDS011;59838;52.152;5.436;2023-02-28T08:32:54;4.03;;;1.70;;
71969;SDS011;59838;52.152;5.436;2023-02-28T08:35:21;3.63;;;1.35;;
71969;SDS011;59838;52.152;5.436;2023-02-28T08:37:48;4.93;;;1.42;;
71969;SDS011;59838;52.152;5.436;2023-02-28T08:40:15;2.67;;;1.48;;
71969;SDS011;59838;52.152;5.436;2023-02-28T08:42:45;3.17;;;1.52;;
71969;SDS011;59838;52.152;5.436;2023-02-28T08:45:12;6.13;;;1.40;;
71969;SDS011;59838;52.152;5.436;2023-02-28T08:47:40;4.03;;;1.20;;
71969;SDS011;59838;52.152;5.436;2023-02-28T08:50:07;2.80;;;1.30;;
71969;SDS011;59838;52.152;5.436;2023-02-28T08:52:34;3.83;;;1.20;;
71969;SDS011;59838;52.152;5.436;2023-02-28T08:55:00;3.22;;;1.13;;
71969;SDS011;59838;52.152;5.436;2023-02-28T08:57:27;1.17;;;0.60;;
71969;SDS011;59838;52.152;5.436;2023-02-28T08:59:53;3.25;;;0.77;;
71969;SDS011;59838;52.152;5.436;2023-02-28T09:02:20;4.43;;;1.55;;
71969;SDS011;59838;52.152;5.436;2023-02-28T09:04:46;1.42;;;0.82;;
71969;SDS011;59838;52.152;5.436;2023-02-28T09:07:13;2.10;;;0.70;;
71969;SDS011;59838;52.152;5.436;2023-02-28T09:09:40;3.07;;;0.87;;
71969;SDS011;59838;52.152;5.436;2023-02-28T09:12:23;3.20;;;0.77;;
71969;SDS011;59838;52.152;5.436;2023-02-28T09:14:51;1.98;;;1.13;;
71969;SDS011;59838;52.152;5.436;2023-02-28T09:17:18;1.42;;;0.50;;
71969;SDS011;59838;52.152;5.436;2023-02-28T09:19:47;2.20;;;0.70;;
71969;SDS011;59838;52.152;5.436;2023-02-28T09:22:14;5.43;;;0.70;;
71969;SDS011;59838;52.152;5.436;2023-02-28T09:24:41;0.85;;;0.50;;
71969;SDS011;59838;52.152;5.436;2023-02-28T09:27:07;3.10;;;0.40;;
71969;SDS011;59838;52.152;5.436;2023-02-28T09:29:34;1.15;;;0.55;;
71969;SDS011;59838;52.152;5.436;2023-02-28T09:32:01;1.20;;;0.30;;
71969;SDS011;59838;52.152;5.436;2023-02-28T09:34:28;0.90;;;0.27;;
71969;SDS011;59838;52.152;5.436;2023-02-28T09:36:57;1.05;;;0.28;;
71969;SDS011;59838;52.152;5.436;2023-02-28T09:39:23;0.45;;;0.20;;
71969;SDS011;59838;52.152;5.436;2023-02-28T09:41:52;0.60;;;0.20;;
71969;SDS011;59838;52.152;5.436;2023-02-28T09:44:30;1.60;;;0.40;;
71969;SDS011;59838;52.152;5.436;2023-02-28T09:47:04;0.90;;;0.23;;
71969;SDS011;59838;52.152;5.436;2023-02-28T09:49:54;1.80;;;0.30;;
71969;SDS011;59838;52.152;5.436;2023-02-28T09:52:29;2.33;;;0.38;;
71969;SDS011;59838;52.152;5.436;2023-02-28T09:55:04;1.92;;;0.65;;
71969;SDS011;59838;52.152;5.436;2023-02-28T09:57:46;1.95;;;0.30;;
71969;SDS011;59838;52.152;5.436;2023-02-28T10:00:14;1.57;;;0.20;;
71969;SDS011;59838;52.152;5.436;2023-02-28T10:03:48;1.45;;;0.30;;
71969;SDS011;59838;52.152;5.436;2023-02-28T10:05:58;0.98;;;0.30;;
71969;SDS011;59838;52.152;5.436;2023-02-28T10:10:58;2.20;;;0.30;;
71969;SDS011;59838;52.152;5.436;2023-02-28T10:16:34;0.90;;;0.30;;
71969;SDS011;59838;52.152;5.436;2023-02-28T10:19:06;3.05;;;0.55;;
71969;SDS011;59838;52.152;5.436;2023-02-28T10:21:42;4.30;;;0.30;;
71969;SDS011;59838;52.152;5.436;2023-02-28T10:24:29;1.38;;;0.30;;
71969;SDS011;59838;52.152;5.436;2023-02-28T10:27:01;1.70;;;0.30;;
71969;SDS011;59838;52.152;5.436;2023-02-28T10:29:39;2.50;;;0.43;;
71969;SDS011;59838;52.152;5.436;2023-02-28T10:32:09;1.10;;;0.38;;
71969;SDS011;59838;52.152;5.436;2023-02-28T10:34:40;0.75;;;0.40;;
71969;SDS011;59838;52.152;5.436;2023-02-28T10:37:07;0.95;;;0.40;;
71969;SDS011;59838;52.152;5.436;2023-02-28T10:39:34;1.60;;;0.30;;
71969;SDS011;59838;52.152;5.436;2023-02-28T10:42:03;0.82;;;0.20;;
71969;SDS011;59838;52.152;5.436;2023-02-28T10:44:30;1.83;;;0.40;;
71969;SDS011;59838;52.152;5.436;2023-02-28T10:46:57;0.98;;;0.35;;
71969;SDS011;59838;52.152;5.436;2023-02-28T10:49:25;1.70;;;0.50;;
71969;SDS011;59838;52.152;5.436;2023-02-28T10:51:57;1.47;;;0.33;;
71969;SDS011;59838;52.152;5.436;2023-02-28T10:54:32;3.10;;;0.40;;
71969;SDS011;59838;52.152;5.436;2023-02-28T10:57:20;1.05;;;0.30;;
71969;SDS011;59838;52.152;5.436;2023-02-28T10:59:51;1.33;;;0.50;;
71969;SDS011;59838;52.152;5.436;2023-02-28T11:03:05;1.85;;;0.50;;
71969;SDS011;59838;52.152;5.436;2023-02-28T11:05:54;2.60;;;1.10;;
71969;SDS011;59838;52.152;5.436;2023-02-28T11:08:21;2.88;;;0.40;;
71969;SDS011;59838;52.152;5.436;2023-02-28T11:10:48;1.85;;;0.40;;
71969;SDS011;59838;52.152;5.436;2023-02-28T11:13:25;2.05;;;0.40;;
71969;SDS011;59838;52.152;5.436;2023-02-28T11:15:56;0.90;;;0.40;;
71969;SDS011;59838;52.152;5.436;2023-02-28T11:21:16;2.00;;;0.60;;
71969;SDS011;59838;52.152;5.436;2023-02-28T11:23:53;1.42;;;0.50;;
71969;SDS011;59838;52.152;5.436;2023-02-28T11:26:43;1.65;;;0.60;;
71969;SDS011;59838;52.152;5.436;2023-02-28T11:32:01;0.80;;;0.30;;
71969;SDS011;59838;52.152;5.436;2023-02-28T11:34:42;1.20;;;0.40;;
71969;SDS011;59838;52.152;5.436;2023-02-28T11:37:11;1.15;;;0.40;;
71969;SDS011;59838;52.152;5.436;2023-02-28T11:39:43;1.20;;;0.40;;
71969;SDS011;59838;52.152;5.436;2023-02-28T11:53:29;1.10;;;0.40;;
71969;SDS011;59838;52.152;5.436;2023-02-28T11:56:29;0.93;;;0.40;;
71969;SDS011;59838;52.152;5.436;2023-02-28T11:59:02;0.90;;;0.40;;
71969;SDS011;59838;52.152;5.436;2023-02-28T12:04:30;1.02;;;0.30;;
71969;SDS011;59838;52.152;5.436;2023-02-28T12:07:09;2.28;;;0.57;;
71969;SDS011;59838;52.152;5.436;2023-02-28T12:09:53;1.48;;;0.30;;
71969;SDS011;59838;52.152;5.436;2023-02-28T12:24:01;1.48;;;0.47;;
71969;SDS011;59838;52.152;5.436;2023-02-28T12:26:49;4.13;;;0.73;;
71969;SDS011;59838;52.152;5.436;2023-02-28T12:29:30;0.75;;;0.40;;
71969;SDS011;59838;52.152;5.436;2023-02-28T12:32:44;1.00;;;0.32;;
71969;SDS011;59838;52.152;5.436;2023-02-28T12:35:02;1.27;;;0.57;;
71969;SDS011;59838;52.152;5.436;2023-02-28T12:37:41;1.55;;;0.30;;
71969;SDS011;59838;52.152;5.436;2023-02-28T12:40:11;1.23;;;0.50;;
71969;SDS011;59838;52.152;5.436;2023-02-28T12:42:42;1.27;;;0.43;;
71969;SDS011;59838;52.152;5.436;2023-02-28T12:47:57;10.82;;;0.77;;
71969;SDS011;59838;52.152;5.436;2023-02-28T12:50:27;3.20;;;0.50;;
71969;SDS011;59838;52.152;5.436;2023-02-28T12:52:59;1.50;;;0.40;;
71969;SDS011;59838;52.152;5.436;2023-02-28T13:01:00;1.42;;;0.40;;
71969;SDS011;59838;52.152;5.436;2023-02-28T13:06:28;3.93;;;0.50;;
71969;SDS011;59838;52.152;5.436;2023-02-28T13:09:16;1.17;;;0.47;;
71969;SDS011;59838;52.152;5.436;2023-02-28T13:11:45;2.72;;;0.38;;
71969;SDS011;59838;52.152;5.436;2023-02-28T13:14:22;1.63;;;0.30;;
71969;SDS011;59838;52.152;5.436;2023-02-28T13:19:37;1.30;;;0.40;;
71969;SDS011;59838;52.152;5.436;2023-02-28T13:22:15;1.55;;;0.50;;
71969;SDS011;59838;52.152;5.436;2023-02-28T13:25:52;4.80;;;0.60;;
71969;SDS011;59838;52.152;5.436;2023-02-28T13:28:08;2.00;;;0.50;;
71969;SDS011;59838;52.152;5.436;2023-02-28T13:33:21;1.73;;;0.67;;
71969;SDS011;59838;52.152;5.436;2023-02-28T13:38:43;1.88;;;0.82;;
71969;SDS011;59838;52.152;5.436;2023-02-28T13:47:21;2.43;;;0.60;;
71969;SDS011;59838;52.152;5.436;2023-02-28T13:51:49;1.42;;;0.40;;
71969;SDS011;59838;52.152;5.436;2023-02-28T13:56:58;2.05;;;0.60;;
71969;SDS011;59838;52.152;5.436;2023-02-28T13:59:50;1.20;;;0.47;;
71969;SDS011;59838;52.152;5.436;2023-02-28T14:05:05;0.90;;;0.40;;
71969;SDS011;59838;52.152;5.436;2023-02-28T14:07:48;2.30;;;0.70;;
71969;SDS011;59838;52.152;5.436;2023-02-28T14:10:24;1.42;;;0.70;;
71969;SDS011;59838;52.152;5.436;2023-02-28T14:20:55;1.00;;;0.40;;
71969;SDS011;59838;52.152;5.436;2023-02-28T14:23:32;1.27;;;0.60;;
71969;SDS011;59838;52.152;5.436;2023-02-28T14:26:17;1.47;;;0.50;;
71969;SDS011;59838;52.152;5.436;2023-02-28T14:29:00;4.22;;;0.93;;
71969;SDS011;59838;52.152;5.436;2023-02-28T14:31:52;5.28;;;0.52;;
71969;SDS011;59838;52.152;5.436;2023-02-28T14:34:45;1.30;;;0.60;;
71969;SDS011;59838;52.152;5.436;2023-02-28T14:37:30;2.03;;;0.40;;
71969;SDS011;59838;52.152;5.436;2023-02-28T14:40:02;1.43;;;0.53;;
71969;SDS011;59838;52.152;5.436;2023-02-28T14:42:34;1.65;;;0.50;;
71969;SDS011;59838;52.152;5.436;2023-02-28T14:45:04;1.48;;;0.60;;
71969;SDS011;59838;52.152;5.436;2023-02-28T14:47:31;1.52;;;0.50;;
71969;SDS011;59838;52.152;5.436;2023-02-28T14:50:00;0.90;;;0.30;;
71969;SDS011;59838;52.152;5.436;2023-02-28T14:52:28;1.00;;;0.40;;
71969;SDS011;59838;52.152;5.436;2023-02-28T14:57:28;3.72;;;0.68;;
71969;SDS011;59838;52.152;5.436;2023-02-28T15:00:21;1.33;;;0.52;;
71969;SDS011;59838;52.152;5.436;2023-02-28T15:02:48;0.90;;;0.40;;
71969;SDS011;59838;52.152;5.436;2023-02-28T15:05:21;1.93;;;0.50;;
71969;SDS011;59838;52.152;5.436;2023-02-28T15:08:04;1.27;;;0.50;;
71969;SDS011;59838;52.152;5.436;2023-02-28T15:10:39;3.72;;;1.55;;
71969;SDS011;59838;52.152;5.436;2023-02-28T15:13:11;0.85;;;0.45;;
71969;SDS011;59838;52.152;5.436;2023-02-28T15:15:41;1.00;;;0.40;;
71969;SDS011;59838;52.152;5.436;2023-02-28T15:21:16;2.35;;;0.47;;
71969;SDS011;59838;52.152;5.436;2023-02-28T15:23:49;1.65;;;0.50;;
71969;SDS011;59838;52.152;5.436;2023-02-28T15:26:38;1.77;;;0.55;;
71969;SDS011;59838;52.152;5.436;2023-02-28T15:29:15;1.15;;;0.50;;
71969;SDS011;59838;52.152;5.436;2023-02-28T15:31:55;3.23;;;0.50;;
71969;SDS011;59838;52.152;5.436;2023-02-28T15:34:37;2.17;;;0.55;;
71969;SDS011;59838;52.152;5.436;2023-02-28T15:42:58;2.80;;;0.57;;
71969;SDS011;59838;52.152;5.436;2023-02-28T15:45:41;2.57;;;0.63;;
71969;SDS011;59838;52.152;5.436;2023-02-28T15:50:41;1.52;;;0.40;;
71969;SDS011;59838;52.152;5.436;2023-02-28T15:53:12;2.78;;;0.77;;
71969;SDS011;59838;52.152;5.436;2023-02-28T15:55:41;2.35;;;0.63;;
71969;SDS011;59838;52.152;5.436;2023-02-28T15:58:08;1.37;;;0.63;;
71969;SDS011;59838;52.152;5.436;2023-02-28T16:00:39;2.13;;;0.70;;
71969;SDS011;59838;52.152;5.436;2023-02-28T16:03:25;1.25;;;0.57;;
71969;SDS011;59838;52.152;5.436;2023-02-28T16:06:09;1.17;;;0.57;;
71969;SDS011;59838;52.152;5.436;2023-02-28T16:09:06;1.88;;;0.50;;
71969;SDS011;59838;52.152;5.436;2023-02-28T16:11:38;1.03;;;0.40;;
71969;SDS011;59838;52.152;5.436;2023-02-28T16:14:11;1.08;;;0.68;;
71969;SDS011;59838;52.152;5.436;2023-02-28T16:16:47;1.35;;;0.52;;
71969;SDS011;59838;52.152;5.436;2023-02-28T16:19:18;2.97;;;0.57;;
71969;SDS011;59838;52.152;5.436;2023-02-28T16:21:45;2.85;;;0.40;;
71969;SDS011;59838;52.152;5.436;2023-02-28T16:24:13;1.47;;;0.67;;
71969;SDS011;59838;52.152;5.436;2023-02-28T16:26:40;2.65;;;0.55;;
71969;SDS011;59838;52.152;5.436;2023-02-28T16:29:09;2.83;;;0.68;;
71969;SDS011;59838;52.152;5.436;2023-02-28T16:31:42;2.25;;;0.55;;
71969;SDS011;59838;52.152;5.436;2023-02-28T16:34:09;1.85;;;0.70;;
71969;SDS011;59838;52.152;5.436;2023-02-28T16:36:35;2.10;;;0.70;;
71969;SDS011;59838;52.152;5.436;2023-02-28T16:39:02;1.48;;;0.52;;
71969;SDS011;59838;52.152;5.436;2023-02-28T16:41:29;1.45;;;0.73;;
71969;SDS011;59838;52.152;5.436;2023-02-28T16:43:56;1.25;;;0.60;;
71969;SDS011;59838;52.152;5.436;2023-02-28T16:46:30;1.65;;;0.60;;
71969;SDS011;59838;52.152;5.436;2023-02-28T16:49:00;1.90;;;0.50;;
71969;SDS011;59838;52.152;5.436;2023-02-28T16:51:27;1.15;;;0.60;;
71969;SDS011;59838;52.152;5.436;2023-02-28T16:53:54;1.17;;;0.60;;
71969;SDS011;59838;52.152;5.436;2023-02-28T16:56:21;1.75;;;0.80;;
71969;SDS011;59838;52.152;5.436;2023-02-28T16:58:49;1.45;;;0.50;;
71969;SDS011;59838;52.152;5.436;2023-02-28T17:01:17;3.20;;;0.80;;
71969;SDS011;59838;52.152;5.436;2023-02-28T17:03:48;1.52;;;0.63;;
71969;SDS011;59838;52.152;5.436;2023-02-28T17:08:57;1.48;;;0.70;;
71969;SDS011;59838;52.152;5.436;2023-02-28T17:11:26;3.50;;;0.75;;
71969;SDS011;59838;52.152;5.436;2023-02-28T17:13:54;1.33;;;0.50;;
71969;SDS011;59838;52.152;5.436;2023-02-28T17:18:52;1.13;;;0.50;;
71969;SDS011;59838;52.152;5.436;2023-02-28T17:21:20;1.52;;;0.60;;